Time;durP1;ratioP1;P1;durP2;ratioP2;P2;SDS_P1;SDS_P2;PMS_P1;PMS_P2;Temp;Humidity;BMP_temperature;BMP_pressure;BME280_temperature;BME280_humidity;BME280_pressure;Samples;Min_cycle;Max_cycle;Signal;HPM_P1;HPM_P2
2022/03/24 00:01:51;;;;;;;133.70;51.05;;;;;;;6.44;94.98;102613.66;5026570;28;20120;-76
2022/03/24 00:04:16;;;;;;;129.23;49.85;;;;;;;6.23;97.01;102619.78;5025480;28;20045;-76
2022/03/24 00:06:42;;;;;;;129.73;49.25;;;;;;;6.10;96.83;102615.66;5042291;28;20155;-76
2022/03/24 00:09:07;;;;;;;131.10;52.42;;;;;;;6.24;96.64;102617.00;5011244;28;20044;-76
2022/03/24 00:11:34;;;;;;;125.40;50.60;;;;;;;6.30;96.61;102618.66;5036902;28;20036;-76
2022/03/24 00:14:00;;;;;;;130.35;51.78;;;;;;;6.24;96.41;102613.41;5024150;28;20499;-77
2022/03/24 00:16:26;;;;;;;141.52;53.70;;;;;;;6.23;96.68;102603.44;5019048;28;20042;-77
2022/03/24 00:18:52;;;;;;;140.32;55.45;;;;;;;6.16;97.46;102604.59;5020759;28;20099;-77
2022/03/24 00:21:17;;;;;;;150.25;54.22;;;;;;;6.10;97.13;102607.50;5022678;28;20038;-77
2022/03/24 00:23:43;;;;;;;142.30;51.53;;;;;;;6.29;96.37;102611.41;5031625;28;20093;-77
2022/03/24 00:26:09;;;;;;;151.90;53.50;;;;;;;6.08;97.75;102613.00;5017216;28;20026;-77
2022/03/24 00:28:34;;;;;;;141.75;52.67;;;;;;;6.00;97.77;102607.81;5014644;28;20100;-77
2022/03/24 00:31:01;;;;;;;135.32;51.95;;;;;;;5.95;98.35;102607.06;5023821;28;20052;-77
2022/03/24 00:33:27;;;;;;;137.85;52.08;;;;;;;6.02;97.56;102603.22;5022124;28;20108;-77
2022/03/24 00:35:52;;;;;;;132.68;50.55;;;;;;;6.05;97.63;102602.22;5020623;28;20531;-77
2022/03/24 00:38:18;;;;;;;133.57;50.20;;;;;;;5.97;98.69;102605.19;5022293;28;20042;-77
2022/03/24 00:40:45;;;;;;;126.13;51.58;;;;;;;5.88;99.12;102598.16;5009198;28;20041;-76
2022/03/24 00:43:11;;;;;;;127.68;50.67;;;;;;;5.77;99.72;102588.56;5026203;28;20025;-76
2022/03/24 00:45:40;;;;;;;124.15;50.13;;;;;;;5.76;100.00;102597.69;5023129;28;20050;-77
2022/03/24 00:48:05;;;;;;;133.60;49.92;;;;;;;5.87;100.00;102588.25;5020415;28;20484;-77
2022/03/24 00:50:31;;;;;;;133.88;51.50;;;;;;;5.79;99.74;102590.31;5022661;28;20040;-77
2022/03/24 00:52:56;;;;;;;130.15;51.42;;;;;;;5.72;100.00;102596.88;5009125;28;20030;-77
2022/03/24 00:55:22;;;;;;;136.20;52.30;;;;;;;5.61;100.00;102588.19;5025051;28;20026;-77
2022/03/24 00:57:49;;;;;;;130.52;50.60;;;;;;;5.62;100.00;102587.22;5019612;28;20033;-77
2022/03/24 01:00:16;;;;;;;135.25;49.22;;;;;;;5.72;99.85;102580.56;5016772;28;20477;-77
2022/03/24 01:02:48;;;;;;;130.32;50.17;;;;;;;5.84;99.59;102588.34;5024066;28;20030;-77
2022/03/24 01:05:15;;;;;;;110.33;47.20;;;;;;;5.69;100.00;102587.00;5022004;28;20381;-77
2022/03/24 01:07:42;;;;;;;117.68;48.42;;;;;;;5.54;100.00;102576.56;5009470;28;20555;-78
2022/03/24 01:10:09;;;;;;;124.28;46.47;;;;;;;5.44;100.00;102577.78;5029115;28;20041;-77
2022/03/24 01:12:36;;;;;;;120.82;47.38;;;;;;;5.58;100.00;102581.00;5027957;28;20400;-77
2022/03/24 01:15:04;;;;;;;130.35;49.13;;;;;;;5.57;100.00;102583.75;5023532;28;20374;-78
2022/03/24 01:17:31;;;;;;;117.60;47.70;;;;;;;5.36;100.00;102578.00;5024490;28;20416;-77
2022/03/24 01:19:57;;;;;;;127.10;46.88;;;;;;;5.56;100.00;102588.31;5024334;28;20065;-77
2022/03/24 01:22:22;;;;;;;130.95;47.40;;;;;;;5.53;100.00;102572.09;5020664;28;20450;-77
2022/03/24 01:24:47;;;;;;;125.18;47.45;;;;;;;5.42;100.00;102568.81;5028508;28;20045;-77
2022/03/24 01:27:14;;;;;;;141.23;48.90;;;;;;;5.46;100.00;102578.63;5018815;28;20029;-77
2022/03/24 01:29:40;;;;;;;119.65;46.25;;;;;;;5.47;100.00;102572.28;5024333;28;20036;-77
2022/03/24 01:32:07;;;;;;;125.22;46.53;;;;;;;5.35;100.00;102570.81;5032402;28;20030;-77
2022/03/24 01:34:34;;;;;;;116.72;46.15;;;;;;;5.37;100.00;102566.22;5020900;28;20381;-76
2022/03/24 01:36:59;;;;;;;113.30;45.78;;;;;;;5.31;100.00;102571.81;5021871;28;20033;-77
2022/03/24 01:39:25;;;;;;;122.35;45.60;;;;;;;5.33;100.00;102567.28;5026803;28;20033;-77
2022/03/24 01:41:50;;;;;;;115.93;46.53;;;;;;;5.24;100.00;102570.25;5018520;28;20037;-77
2022/03/24 01:44:17;;;;;;;119.38;46.00;;;;;;;5.22;100.00;102570.28;5021256;28;20397;-77
2022/03/24 01:47:03;;;;;;;118.38;46.60;;;;;;;5.14;100.00;102567.78;5014197;28;20040;-77
2022/03/24 01:49:32;;;;;;;121.45;45.05;;;;;;;5.11;100.00;102565.16;5028587;28;20030;-77
2022/03/24 01:51:58;;;;;;;112.03;43.83;;;;;;;5.07;100.00;102558.03;5022700;28;20179;-77
2022/03/24 01:54:27;;;;;;;127.43;45.72;;;;;;;5.33;100.00;102568.16;5021395;28;20037;-77
2022/03/24 01:56:53;;;;;;;126.88;45.33;;;;;;;5.27;100.00;102560.16;5002961;28;20033;-77
2022/03/24 01:59:19;;;;;;;115.38;44.55;;;;;;;5.22;100.00;102548.56;5023297;28;20112;-77
2022/03/24 02:01:46;;;;;;;103.65;44.50;;;;;;;5.14;100.00;102556.03;5027944;28;20060;-76
2022/03/24 02:04:14;;;;;;;103.82;42.33;;;;;;;4.97;100.00;102549.28;5021133;28;20045;-77
2022/03/24 02:06:40;;;;;;;114.22;43.60;;;;;;;5.00;100.00;102555.53;5007652;28;20078;-77
2022/03/24 02:09:06;;;;;;;121.68;45.13;;;;;;;5.03;100.00;102550.91;5018165;28;20033;-77
2022/03/24 02:11:33;;;;;;;116.28;45.00;;;;;;;4.59;100.00;102543.09;5023652;28;20041;-77
2022/03/24 02:13:59;;;;;;;109.20;42.10;;;;;;;4.66;100.00;102553.78;5020873;28;20026;-77
2022/03/24 02:16:29;;;;;;;100.70;41.42;;;;;;;4.67;100.00;102555.53;5000444;28;20057;-77
2022/03/24 02:18:59;;;;;;;111.47;44.40;;;;;;;4.63;100.00;102556.56;5017835;28;20041;-77
2022/03/24 02:21:27;;;;;;;114.47;48.03;;;;;;;4.59;100.00;102550.31;5019124;28;20400;-77
2022/03/24 02:23:52;;;;;;;125.50;44.63;;;;;;;4.67;100.00;102545.56;5021941;28;20034;-77
2022/03/24 02:26:18;;;;;;;103.13;41.38;;;;;;;4.70;100.00;102545.47;5024709;28;20041;-77
2022/03/24 02:28:45;;;;;;;116.85;43.97;;;;;;;4.68;100.00;102541.06;5026596;28;20030;-77
2022/03/24 02:31:14;;;;;;;116.20;43.50;;;;;;;4.54;100.00;102552.25;5026232;28;20034;-76
2022/03/24 02:33:40;;;;;;;122.22;45.05;;;;;;;4.58;100.00;102545.84;5028220;28;20056;-77
2022/03/24 02:36:07;;;;;;;117.03;45.83;;;;;;;4.51;100.00;102546.91;5021866;28;20044;-76
2022/03/24 02:38:33;;;;;;;111.78;45.88;;;;;;;4.79;100.00;102553.38;5018701;28;20042;-77
2022/03/24 02:40:58;;;;;;;105.07;43.33;;;;;;;4.82;100.00;102544.28;5022066;28;20053;-77
2022/03/24 02:43:24;;;;;;;116.43;44.30;;;;;;;4.66;100.00;102557.38;5009061;28;20049;-77
2022/03/24 02:45:50;;;;;;;129.20;48.47;;;;;;;4.60;100.00;102552.09;5026391;28;20414;-77
2022/03/24 02:48:16;;;;;;;115.68;43.58;;;;;;;4.59;100.00;102561.16;5025270;28;20103;-77
2022/03/24 02:50:42;;;;;;;114.13;42.50;;;;;;;4.34;100.00;102559.09;5008983;28;20041;-77
2022/03/24 02:53:09;;;;;;;105.47;39.92;;;;;;;4.05;100.00;102547.16;5027727;28;20036;-77
2022/03/24 02:55:35;;;;;;;118.90;43.42;;;;;;;4.08;100.00;102562.44;5028688;28;20457;-77
2022/03/24 02:58:01;;;;;;;104.22;42.53;;;;;;;3.95;100.00;102564.59;5032787;28;20103;-77
2022/03/24 03:00:27;;;;;;;115.90;44.22;;;;;;;4.06;100.00;102556.19;5025301;28;20033;-77
2022/03/24 03:02:53;;;;;;;112.00;43.92;;;;;;;3.99;100.00;102563.56;5028784;28;20034;-77
2022/03/24 03:05:20;;;;;;;144.27;44.50;;;;;;;4.04;100.00;102561.63;5029200;28;20472;-77
2022/03/24 03:07:46;;;;;;;109.00;42.42;;;;;;;4.14;100.00;102542.44;5029629;28;20508;-77
2022/03/24 03:10:12;;;;;;;115.30;43.42;;;;;;;4.24;100.00;102552.13;5030381;28;20057;-77
2022/03/24 03:12:37;;;;;;;120.60;45.08;;;;;;;4.17;100.00;102543.25;5028171;28;20034;-77
2022/03/24 03:15:04;;;;;;;116.82;45.97;;;;;;;4.16;100.00;102544.16;5026776;28;20037;-77
2022/03/24 03:17:30;;;;;;;116.53;46.67;;;;;;;4.20;100.00;102548.59;5029819;28;20050;-77
2022/03/24 03:19:56;;;;;;;112.50;43.78;;;;;;;4.18;100.00;102542.34;5021917;28;20120;-77
2022/03/24 03:22:22;;;;;;;112.78;43.97;;;;;;;4.10;100.00;102547.06;5018416;28;20488;-77
2022/03/24 03:24:47;;;;;;;115.78;44.08;;;;;;;4.08;100.00;102551.59;5028884;28;20119;-77
2022/03/24 03:27:14;;;;;;;109.78;43.28;;;;;;;4.18;100.00;102547.75;5027966;28;20083;-77
2022/03/24 03:29:41;;;;;;;126.07;46.75;;;;;;;3.86;100.00;102544.00;5041893;28;20484;-77
2022/03/24 03:32:07;;;;;;;115.57;44.10;;;;;;;4.07;100.00;102548.94;5048670;28;20086;-77
2022/03/24 03:34:32;;;;;;;117.72;44.50;;;;;;;4.08;100.00;102554.31;5030086;28;20033;-77
2022/03/24 03:36:59;;;;;;;113.22;44.22;;;;;;;4.13;100.00;102552.41;5016551;28;20088;-77
2022/03/24 03:39:26;;;;;;;117.95;45.97;;;;;;;4.04;100.00;102563.47;5027289;28;20063;-77
2022/03/24 03:41:52;;;;;;;122.10;48.03;;;;;;;4.00;100.00;102556.31;5053891;28;20052;-77
2022/03/24 03:44:18;;;;;;;95.30;39.97;;;;;;;3.85;100.00;102563.91;5054235;28;20033;-77
2022/03/24 03:46:44;;;;;;;109.13;45.25;;;;;;;4.00;100.00;102556.31;5034591;28;20367;-77
2022/03/24 03:49:10;;;;;;;121.00;43.40;;;;;;;4.03;100.00;102554.44;5048147;28;20115;-77
2022/03/24 03:51:37;;;;;;;118.97;45.00;;;;;;;4.02;100.00;102558.06;5029948;28;20392;-77
2022/03/24 03:54:10;;;;;;;126.10;48.90;;;;;;;3.88;100.00;102557.50;5041719;28;20028;-77
2022/03/24 03:56:37;;;;;;;109.55;43.72;;;;;;;3.70;100.00;102566.94;5045956;28;20032;-77
2022/03/24 03:59:03;;;;;;;102.05;42.00;;;;;;;3.88;100.00;102559.34;5030169;28;20067;-77
2022/03/24 04:01:30;;;;;;;100.57;39.53;;;;;;;3.69;100.00;102557.06;5051915;28;20143;-77
2022/03/24 04:03:56;;;;;;;114.70;42.38;;;;;;;3.55;100.00;102561.88;5048620;28;20031;-77
2022/03/24 04:06:22;;;;;;;110.95;42.97;;;;;;;3.65;100.00;102558.03;5045258;28;20033;-77
2022/03/24 04:08:47;;;;;;;111.68;43.15;;;;;;;3.69;100.00;102557.06;5025761;28;20033;-77
2022/03/24 04:11:13;;;;;;;102.78;42.45;;;;;;;3.54;100.00;102560.97;5029616;28;20025;-77
2022/03/24 04:13:42;;;;;;;114.15;44.78;;;;;;;3.66;100.00;102554.41;5028455;28;20045;-77
2022/03/24 04:16:11;;;;;;;121.13;45.08;;;;;;;3.63;100.00;102562.59;5026364;28;20088;-77
2022/03/24 04:18:46;;;;;;;112.57;43.30;;;;;;;3.72;100.00;102556.97;5025645;28;20033;-77
2022/03/24 04:21:12;;;;;;;114.40;45.60;;;;;;;3.70;100.00;102558.81;5024943;28;20392;-77
2022/03/24 04:23:39;;;;;;;117.47;44.50;;;;;;;3.68;100.00;102566.97;5029045;28;20036;-77
2022/03/24 04:26:05;;;;;;;113.88;44.20;;;;;;;3.55;100.00;102551.06;5023589;28;20041;-77
2022/03/24 04:28:32;;;;;;;114.82;45.60;;;;;;;3.52;100.00;102567.38;5017661;28;20042;-77
2022/03/24 04:30:58;;;;;;;118.95;45.70;;;;;;;3.36;100.00;102558.69;5015451;28;20072;-77
2022/03/24 04:33:23;;;;;;;110.95;43.47;;;;;;;3.35;100.00;102555.09;5007935;28;20054;-77
2022/03/24 04:35:49;;;;;;;111.25;43.75;;;;;;;3.42;100.00;102561.25;5024646;28;20018;-77
2022/03/24 04:38:15;;;;;;;109.85;41.63;;;;;;;3.07;100.00;102554.78;5021134;28;20038;-77
2022/03/24 04:40:40;;;;;;;123.97;43.47;;;;;;;3.13;100.00;102551.94;5016258;28;20775;-77
2022/03/24 04:43:06;;;;;;;122.35;44.50;;;;;;;3.26;100.00;102556.19;5013410;28;20113;-77
2022/03/24 04:45:33;;;;;;;111.57;42.80;;;;;;;3.19;100.00;102559.94;5028576;28;20423;-77
2022/03/24 04:48:00;;;;;;;113.15;44.70;;;;;;;3.05;100.00;102567.44;5025996;28;20029;-77
2022/03/24 04:50:27;;;;;;;118.00;42.35;;;;;;;2.98;100.00;102566.66;5016252;28;20064;-77
2022/03/24 04:52:52;;;;;;;108.55;44.65;;;;;;;3.15;100.00;102570.84;5021118;28;20029;-77
2022/03/24 04:55:18;;;;;;;127.28;45.03;;;;;;;3.04;100.00;102571.94;5023205;28;20549;-77
2022/03/24 04:57:43;;;;;;;118.22;43.20;;;;;;;3.08;100.00;102573.69;5013207;28;20030;-77
2022/03/24 05:00:10;;;;;;;123.45;43.22;;;;;;;3.10;100.00;102573.66;5020500;28;20044;-77
2022/03/24 05:02:37;;;;;;;119.97;44.92;;;;;;;3.06;100.00;102566.50;5016435;28;20076;-76
2022/03/24 05:05:02;;;;;;;114.40;44.88;;;;;;;3.07;100.00;102566.50;5024419;28;20092;-76
2022/03/24 05:07:28;;;;;;;122.15;44.80;;;;;;;3.29;100.00;102576.88;5024641;28;20025;-76
2022/03/24 05:09:54;;;;;;;125.65;45.03;;;;;;;3.28;100.00;102569.66;5020771;28;20060;-76
2022/03/24 05:12:20;;;;;;;122.45;44.28;;;;;;;3.25;100.00;102561.63;5025024;28;20033;-79
2022/03/24 05:14:47;;;;;;;119.18;42.85;;;;;;;3.05;100.00;102568.34;5028948;28;20381;-78
2022/03/24 05:17:12;;;;;;;109.15;42.67;;;;;;;3.16;100.00;102572.63;5042921;28;20110;-76
2022/03/24 05:19:44;;;;;;;122.00;43.13;;;;;;;3.10;100.00;102574.53;5032168;28;20528;-76
2022/03/24 05:22:10;;;;;;;124.00;45.00;;;;;;;2.92;100.00;102566.81;5033420;28;20419;-77
2022/03/24 05:24:37;;;;;;;119.10;43.42;;;;;;;3.10;100.00;102577.25;5025954;28;20029;-76
2022/03/24 05:27:05;;;;;;;115.57;43.45;;;;;;;3.00;100.00;102567.53;5025047;28;20038;-76
2022/03/24 05:29:31;;;;;;;116.43;43.45;;;;;;;3.00;100.00;102572.94;5031643;28;20102;-76
2022/03/24 05:31:56;;;;;;;119.68;45.85;;;;;;;2.99;100.00;102576.56;5046381;28;20033;-77
2022/03/24 05:34:21;;;;;;;132.32;46.33;;;;;;;2.89;100.00;102572.28;5015214;28;20396;-77
2022/03/24 05:36:48;;;;;;;120.20;45.20;;;;;;;3.09;100.00;102572.75;5047263;28;20034;-77
2022/03/24 05:39:13;;;;;;;124.50;45.08;;;;;;;3.02;100.00;102571.09;5028471;28;20088;-77
2022/03/24 05:41:39;;;;;;;117.32;45.25;;;;;;;3.07;100.00;102580.03;5026577;28;20400;-77
2022/03/24 05:44:04;;;;;;;118.15;43.53;;;;;;;2.87;100.00;102572.28;5005722;28;20043;-77
2022/03/24 05:46:41;;;;;;;128.43;46.22;;;;;;;3.04;100.00;102582.78;5010139;28;20029;-76
2022/03/24 05:49:08;;;;;;;138.18;47.60;;;;;;;2.98;100.00;102580.19;5028605;28;20056;-77
2022/03/24 05:51:34;;;;;;;118.95;44.97;;;;;;;3.05;100.00;102581.88;5042256;28;20512;-76
2022/03/24 05:53:59;;;;;;;127.53;45.60;;;;;;;3.05;100.00;102587.28;5023478;28;20025;-76
2022/03/24 05:56:25;;;;;;;120.95;44.65;;;;;;;3.13;100.00;102584.41;5037356;28;20029;-76
2022/03/24 05:58:51;;;;;;;130.25;44.20;;;;;;;3.20;100.00;102579.75;5046110;28;20033;-76
2022/03/24 06:01:17;;;;;;;124.22;45.53;;;;;;;3.15;100.00;102585.28;5028827;28;20028;-76
2022/03/24 06:03:45;;;;;;;127.07;45.00;;;;;;;3.18;100.00;102584.31;5015481;28;20091;-76
2022/03/24 06:06:12;;;;;;;127.63;44.33;;;;;;;3.24;100.00;102578.78;5007889;28;20461;-76
2022/03/24 06:08:38;;;;;;;126.38;45.85;;;;;;;3.42;100.00;102585.63;5043771;28;20036;-76
2022/03/24 06:11:04;;;;;;;125.10;44.97;;;;;;;3.31;100.00;102584.06;5018959;28;20025;-76
2022/03/24 06:13:30;;;;;;;130.70;44.33;;;;;;;3.39;100.00;102581.16;5026640;28;20057;-76
2022/03/24 06:15:56;;;;;;;119.72;44.22;;;;;;;3.44;100.00;102583.78;5049030;28;20114;-76
2022/03/24 06:18:22;;;;;;;128.23;46.58;;;;;;;3.39;100.00;102592.00;5030077;28;20027;-75
2022/03/24 06:20:47;;;;;;;128.52;46.75;;;;;;;3.32;100.00;102587.63;5020779;28;20026;-76
2022/03/24 06:23:13;;;;;;;134.18;47.97;;;;;;;3.44;100.00;102587.41;5045987;28;20033;-76
2022/03/24 06:25:42;;;;;;;131.82;48.63;;;;;;;3.39;100.00;102591.09;5012575;28;20040;-76
2022/03/24 06:28:08;;;;;;;128.52;45.80;;;;;;;3.57;100.00;102600.66;5027195;28;20031;-75
2022/03/24 06:30:33;;;;;;;140.80;49.70;;;;;;;3.78;100.00;102586.63;5039475;28;20463;-77
2022/03/24 06:32:59;;;;;;;143.48;48.95;;;;;;;3.89;100.00;102588.19;5038582;28;20049;-77
2022/03/24 06:35:25;;;;;;;140.90;50.25;;;;;;;4.01;100.00;102590.63;5041955;28;20043;-76
2022/03/24 06:37:51;;;;;;;152.50;49.00;;;;;;;4.08;100.00;102594.97;5043928;28;20033;-77
2022/03/24 06:40:18;;;;;;;142.23;49.80;;;;;;;4.21;100.00;102593.78;5024808;28;20702;-75
2022/03/24 06:42:43;;;;;;;143.50;53.25;;;;;;;4.42;100.00;102594.16;5023522;28;20044;-77
2022/03/24 06:45:10;;;;;;;147.23;51.85;;;;;;;4.40;100.00;102591.47;5022479;28;20128;-76
2022/03/24 06:47:36;;;;;;;150.32;52.60;;;;;;;4.55;100.00;102592.91;5051322;28;20033;-76
2022/03/24 06:50:06;;;;;;;159.32;52.20;;;;;;;4.83;100.00;102588.59;5035795;28;20471;-76
2022/03/24 06:52:32;;;;;;;164.38;56.80;;;;;;;4.92;100.00;102597.38;5053576;28;20438;-76
2022/03/24 06:54:57;;;;;;;167.13;55.03;;;;;;;5.06;100.00;102593.38;5034253;28;20029;-76
2022/03/24 06:57:22;;;;;;;163.77;56.08;;;;;;;5.21;100.00;102595.66;5044290;28;20034;-76
2022/03/24 06:59:48;;;;;;;175.98;58.47;;;;;;;5.48;100.00;102595.81;5017084;28;20044;-76
2022/03/24 07:02:13;;;;;;;197.07;61.05;;;;;;;5.46;100.00;102593.13;5038065;28;20029;-77
2022/03/24 07:04:39;;;;;;;190.98;64.70;;;;;;;5.59;100.00;102598.19;5035228;28;20021;-78
2022/03/24 07:07:04;;;;;;;206.60;65.60;;;;;;;5.77;100.00;102602.16;5051621;28;20037;-76
2022/03/24 07:09:30;;;;;;;217.88;68.47;;;;;;;5.90;100.00;102598.13;5030066;28;20045;-78
2022/03/24 07:11:56;;;;;;;235.35;70.88;;;;;;;6.13;100.00;102593.81;5008633;28;20049;-77
2022/03/24 07:14:23;;;;;;;236.25;75.13;;;;;;;6.39;100.00;102596.56;5047041;28;20033;-76
2022/03/24 07:16:48;;;;;;;240.75;79.13;;;;;;;6.74;100.00;102583.59;5051800;28;20049;-77
2022/03/24 07:19:14;;;;;;;242.48;81.32;;;;;;;7.21;98.94;102599.16;5037077;28;20038;-78
2022/03/24 07:21:39;;;;;;;241.80;79.78;;;;;;;7.51;95.79;102597.13;5016748;28;20558;-76
2022/03/24 07:24:05;;;;;;;272.58;85.45;;;;;;;7.78;92.78;102596.13;5038608;28;20037;-75
2022/03/24 07:26:30;;;;;;;300.17;87.45;;;;;;;7.97;91.25;102604.44;5010006;28;20093;-76
2022/03/24 07:28:56;;;;;;;283.83;85.53;;;;;;;8.06;87.35;102598.63;5032169;28;20037;-76
2022/03/24 07:31:23;;;;;;;276.33;84.03;;;;;;;8.28;85.32;102596.81;5016583;28;20040;-75
2022/03/24 07:33:49;;;;;;;252.05;80.90;;;;;;;8.64;82.32;102607.16;5045787;28;20546;-76
2022/03/24 07:36:20;;;;;;;251.82;73.30;;;;;;;8.46;82.22;102602.47;5042846;28;20383;-75
2022/03/24 07:38:46;;;;;;;197.35;69.35;;;;;;;8.98;80.72;102605.69;5051335;28;20025;-75
2022/03/24 07:41:11;;;;;;;188.07;64.45;;;;;;;8.97;78.67;102600.31;5050135;28;20542;-75
2022/03/24 07:43:37;;;;;;;168.85;58.38;;;;;;;9.14;76.32;102603.16;5033473;28;20051;-76
2022/03/24 07:46:02;;;;;;;153.75;55.53;;;;;;;9.44;76.43;102605.44;5044535;28;20104;-76
2022/03/24 07:48:28;;;;;;;132.63;50.03;;;;;;;9.77;73.96;102602.09;5050544;28;20033;-75
2022/03/24 07:50:55;;;;;;;126.30;51.70;;;;;;;9.73;73.81;102606.81;5004788;28;20041;-76
2022/03/24 07:53:27;;;;;;;122.72;48.92;;;;;;;9.86;74.56;102612.59;5048061;28;20025;-76
2022/03/24 07:55:55;;;;;;;103.45;47.53;;;;;;;10.30;69.88;102617.75;5044982;28;20036;-75
2022/03/24 07:58:21;;;;;;;102.00;44.20;;;;;;;10.60;68.25;102602.63;5010779;28;20099;-76
2022/03/24 08:00:47;;;;;;;108.85;45.35;;;;;;;10.57;66.90;102608.28;5040579;28;20392;-77
2022/03/24 08:03:18;;;;;;;94.63;45.30;;;;;;;10.96;67.04;102609.91;5026297;28;20116;-77
2022/03/24 08:05:44;;;;;;;93.30;43.95;;;;;;;11.65;62.08;102608.03;5049991;28;20056;-76
2022/03/24 08:08:11;;;;;;;96.72;42.13;;;;;;;11.39;61.67;102608.50;5007970;28;20076;-77
2022/03/24 08:10:40;;;;;;;89.38;41.72;;;;;;;11.63;61.87;102610.88;5034249;28;20041;-77
2022/03/24 08:13:06;;;;;;;86.40;42.33;;;;;;;12.51;56.71;102603.16;5023728;28;20557;-78
2022/03/24 08:15:31;;;;;;;83.80;40.15;;;;;;;12.29;58.58;102611.75;5049608;28;20045;-77
2022/03/24 08:17:57;;;;;;;85.68;40.92;;;;;;;12.56;58.23;102617.50;5001846;28;20033;-77
2022/03/24 08:20:23;;;;;;;84.97;40.92;;;;;;;12.82;58.24;102618.69;5056226;28;20029;-77
2022/03/24 08:22:49;;;;;;;79.50;39.60;;;;;;;12.85;56.74;102614.88;5027075;28;20033;-77
2022/03/24 08:25:17;;;;;;;81.88;40.72;;;;;;;13.08;55.16;102618.06;5022656;28;20050;-78
2022/03/24 08:27:42;;;;;;;82.45;39.55;;;;;;;13.26;55.45;102616.94;5040464;28;20041;-77
2022/03/24 08:30:08;;;;;;;79.88;40.85;;;;;;;13.22;54.28;102616.25;5027938;28;20033;-77
2022/03/24 08:32:34;;;;;;;80.03;39.65;;;;;;;14.24;52.86;102615.28;5028139;28;20040;-77
2022/03/24 08:35:00;;;;;;;75.70;40.60;;;;;;;13.94;52.64;102618.19;5044157;28;20476;-77
2022/03/24 08:37:25;;;;;;;68.80;38.47;;;;;;;13.53;53.30;102622.63;5049382;28;20032;-77
2022/03/24 08:39:51;;;;;;;67.95;38.00;;;;;;;13.50;53.06;102622.81;5034576;28;20041;-77
2022/03/24 08:42:16;;;;;;;68.38;37.17;;;;;;;14.41;51.29;102629.78;5033147;28;20048;-77
2022/03/24 08:44:42;;;;;;;68.95;37.80;;;;;;;14.38;50.44;102622.63;5050073;28;20111;-77
2022/03/24 08:47:07;;;;;;;74.25;38.33;;;;;;;14.95;48.40;102618.78;5047091;28;20029;-76
2022/03/24 08:49:34;;;;;;;69.47;35.80;;;;;;;15.30;45.09;102623.72;5023518;28;20429;-77
2022/03/24 08:51:59;;;;;;;64.13;36.45;;;;;;;14.28;48.61;102619.59;5021596;28;20468;-77
2022/03/24 08:54:25;;;;;;;66.18;35.63;;;;;;;14.83;48.09;102625.16;5055097;28;20040;-77
2022/03/24 08:56:50;;;;;;;77.80;35.75;;;;;;;15.12;46.13;102625.88;5056604;28;20036;-77
2022/03/24 08:59:16;;;;;;;65.65;34.33;;;;;;;15.41;45.14;102626.59;5002136;28;20435;-77
2022/03/24 09:01:43;;;;;;;61.55;35.95;;;;;;;15.31;45.79;102624.59;5018779;28;20095;-77
2022/03/24 09:04:12;;;;;;;59.95;35.63;;;;;;;15.39;44.78;102624.91;5041895;28;20033;-76
2022/03/24 09:06:38;;;;;;;57.92;34.70;;;;;;;15.69;45.02;102632.88;5044835;28;20115;-77
2022/03/24 09:09:04;;;;;;;58.85;33.20;;;;;;;15.46;45.10;102631.75;5034011;28;20111;-77
2022/03/24 09:11:30;;;;;;;59.45;33.70;;;;;;;15.75;44.93;102624.13;5049479;28;20029;-77
2022/03/24 09:13:55;;;;;;;59.30;34.50;;;;;;;16.44;42.68;102620.91;5051306;28;20044;-77
2022/03/24 09:16:21;;;;;;;64.25;33.55;;;;;;;16.49;42.59;102628.88;5013983;28;20116;-77
2022/03/24 09:18:47;;;;;;;57.33;33.97;;;;;;;16.16;42.71;102624.88;5023131;28;20362;-77
2022/03/24 09:21:13;;;;;;;79.78;34.75;;;;;;;16.14;42.82;102624.13;5026149;28;20068;-76
2022/03/24 09:23:39;;;;;;;63.90;34.22;;;;;;;16.40;42.35;102624.03;5017699;28;20516;-75
2022/03/24 09:26:04;;;;;;;62.75;34.15;;;;;;;16.13;44.12;102627.88;5026692;28;20137;-76
2022/03/24 09:28:31;;;;;;;69.97;37.40;;;;;;;16.59;43.42;102629.03;5031386;28;20029;-76
2022/03/24 09:30:57;;;;;;;66.05;38.90;;;;;;;16.73;45.27;102634.41;5031914;28;20061;-76
2022/03/24 09:33:23;;;;;;;68.97;39.75;;;;;;;16.43;44.47;102629.31;5025501;28;20488;-75
2022/03/24 09:35:50;;;;;;;73.32;37.35;;;;;;;16.47;43.66;102630.88;5030748;28;20044;-77
2022/03/24 09:38:16;;;;;;;65.38;36.60;;;;;;;17.12;41.56;102624.06;5024175;28;20037;-76
2022/03/24 09:40:42;;;;;;;112.18;41.00;;;;;;;16.77;42.44;102624.00;5034002;28;20499;-76
2022/03/24 09:43:09;;;;;;;74.38;38.42;;;;;;;16.50;43.00;102623.22;5032056;28;20033;-76
2022/03/24 09:45:34;;;;;;;117.63;39.55;;;;;;;16.79;41.42;102622.88;5024052;28;20037;-77
2022/03/24 09:48:00;;;;;;;71.90;37.42;;;;;;;17.00;41.49;102623.09;5025217;28;20036;-77
2022/03/24 09:50:27;;;;;;;68.75;38.35;;;;;;;17.35;41.15;102621.31;5005399;28;20393;-76
2022/03/24 09:52:53;;;;;;;68.28;38.88;;;;;;;18.22;39.94;102629.06;5022815;28;20045;-77
2022/03/24 09:55:20;;;;;;;70.20;40.67;;;;;;;17.76;41.42;102619.88;5030884;28;20136;-76
2022/03/24 09:57:47;;;;;;;69.95;38.58;;;;;;;17.74;41.42;102624.66;5033367;28;20512;-76
2022/03/24 10:00:13;;;;;;;76.68;39.58;;;;;;;17.50;40.34;102622.88;5023439;28;20029;-76
2022/03/24 10:02:39;;;;;;;62.45;36.00;;;;;;;17.95;38.64;102624.81;5024068;28;20048;-75
2022/03/24 10:05:06;;;;;;;124.90;37.75;;;;;;;17.58;37.96;102620.38;5031023;28;20029;-76
2022/03/24 10:07:45;;;;;;;61.10;34.70;;;;;;;17.64;37.45;102630.97;5012550;28;20049;-75
2022/03/24 10:10:23;;;;;;;61.67;34.53;;;;;;;17.85;37.87;102624.66;5017011;28;20053;-76
2022/03/24 10:12:49;;;;;;;45.53;25.55;;;;;;;18.17;33.86;102629.47;5020075;28;20034;-76
2022/03/24 10:15:16;;;;;;;59.70;27.67;;;;;;;18.90;30.45;102625.13;5018827;28;20504;-76
2022/03/24 10:17:53;;;;;;;47.35;28.05;;;;;;;18.58;30.71;102624.22;5021839;28;20519;-76
2022/03/24 10:20:20;;;;;;;48.40;28.30;;;;;;;18.78;30.81;102619.75;5024143;28;20101;-76
2022/03/24 10:22:52;;;;;;;54.00;28.50;;;;;;;18.92;30.18;102623.13;5036489;28;20073;-77
2022/03/24 10:25:23;;;;;;;63.28;28.10;;;;;;;19.17;29.98;102611.75;5028886;28;20032;-76
2022/03/24 10:28:11;;;;;;;43.90;26.23;;;;;;;19.34;27.89;102608.38;5018749;28;20401;-76
2022/03/24 10:30:58;;;;;;;41.85;26.40;;;;;;;18.74;28.59;102610.78;5017530;28;20037;-76
2022/03/24 10:33:39;;;;;;;43.50;25.90;;;;;;;19.60;28.82;102613.50;5018146;28;20033;-76
2022/03/24 10:36:07;;;;;;;46.10;28.05;;;;;;;19.27;28.79;102615.50;5043367;28;20032;-76
2022/03/24 10:38:34;;;;;;;42.70;27.42;;;;;;;20.23;29.11;102612.50;5032735;28;20041;-76
2022/03/24 10:41:21;;;;;;;47.28;28.52;;;;;;;19.91;28.51;102606.09;5016290;28;20044;-76
2022/03/24 10:43:51;;;;;;;48.05;28.70;;;;;;;19.90;28.92;102612.66;5042319;28;20044;-75
2022/03/24 10:46:22;;;;;;;50.45;28.00;;;;;;;19.69;27.44;102611.78;5019569;28;20021;-76
2022/03/24 10:48:49;;;;;;;46.05;27.63;;;;;;;19.34;29.41;102607.50;5030491;28;20044;-76
2022/03/24 10:51:29;;;;;;;52.28;27.40;;;;;;;19.51;28.24;102604.09;5026160;28;20021;-76
2022/03/24 10:54:20;;;;;;;45.05;27.52;;;;;;;19.69;29.67;102596.00;5045959;28;20029;-76
2022/03/24 10:56:57;;;;;;;42.50;26.50;;;;;;;19.13;27.69;102607.50;5029311;28;20484;-76
2022/03/24 10:59:26;;;;;;;48.45;28.15;;;;;;;19.15;28.09;102603.59;5027901;28;20098;-76
2022/03/24 11:01:53;;;;;;;45.05;27.60;;;;;;;19.03;29.78;102599.97;5045827;28;20063;-76
2022/03/24 11:04:19;;;;;;;53.45;26.33;;;;;;;18.66;29.24;102602.22;5051038;28;20021;-76